Portada
METAR-TAF:

METAR-TAF

Aeropuertos :

Vientián, Laos

Aeropuerto Internacional Wattay

latitud: 17-57N, longitud: 102-34E, altitud: 171 m

Observación

El informe se hizo hace 31 minutos, a las 09:00 UTC
Viento 8 kt del noroeste
Temperatura 30°C
Humedad 62%
Presión 1007 hPa
Visibilidad: 7000 m
Nubes dispersas a una altura de 2000 ft
Cielo nuboso a una altura de 5000 ft

METAR: VLVT 190900Z 32008KT 7000 SCT020 BKN050 30/22 Q1007 NOSIG

Hora: 16:31 (09:31 UTC)

Pronóstico

El informe se hizo hace 4 horas y 31 minutos, a las 05:00 UTC
Pronóstico válido del 19 a las 06 UTC al 20 a las 06 UTC
Viento 6 kt del norte-noroeste
Visibilidad: 7000 m
Nubes dispersas a una altura de 2000 ft
Cielo nuboso a una altura de 5000 ft
Temporalmente
del 19 a las 14 UTC al 19 a las 20 UTC
Visibilidad: 4000 m
Escasas nubes a una altura de 2000 ft
Cielo nuboso a una altura de 5000 ft
neblina

TAF: VLVT 190500Z 1906/2006 34006KT 7000 SCT020 BKN050 TEMPO 1914/1920 4000 BR FEW020 BKN050

Observaciones y pronósticos meteorológicos de más de 4000 aeropuertos (mensajes METAR y TAF).

Los puntos amarillos y rojos representan las estaciones disponibles.

Ponga el ratón en el punto deseado para ver el nombre de la estación.

Haga clic para ver las observaciones y los pronósticos meteorológicos.

Para cambiar el mapa : haga clic en los botones verdes con una cruz de color negro para hacer un zoom, en el botón verde con un guión para alejar o en las flechas verdes para mapas adyacentes.


METAR-TAF: